sensor_id;sensor_type;location;lat;lon;timestamp;P1;durP1;ratioP1;P2;durP2;ratioP2
7160;SDS011;3622;53.576;9.978;2023-02-15T00:01:15;106.20;;;26.27;;
7160;SDS011;3622;53.576;9.978;2023-02-15T00:03:41;97.40;;;27.03;;
7160;SDS011;3622;53.576;9.978;2023-02-15T00:06:07;80.20;;;27.00;;
7160;SDS011;3622;53.576;9.978;2023-02-15T00:08:33;80.17;;;27.10;;
7160;SDS011;3622;53.576;9.978;2023-02-15T00:11:17;111.37;;;25.50;;
7160;SDS011;3622;53.576;9.978;2023-02-15T00:14:05;83.47;;;26.10;;
7160;SDS011;3622;53.576;9.978;2023-02-15T00:16:31;81.30;;;25.30;;
7160;SDS011;3622;53.576;9.978;2023-02-15T00:18:56;87.53;;;24.13;;
7160;SDS011;3622;53.576;9.978;2023-02-15T00:21:26;76.97;;;24.87;;
7160;SDS011;3622;53.576;9.978;2023-02-15T00:23:52;64.70;;;25.80;;
7160;SDS011;3622;53.576;9.978;2023-02-15T00:26:18;68.43;;;24.60;;
7160;SDS011;3622;53.576;9.978;2023-02-15T00:28:44;86.87;;;23.80;;
7160;SDS011;3622;53.576;9.978;2023-02-15T00:31:11;79.90;;;24.90;;
7160;SDS011;3622;53.576;9.978;2023-02-15T00:33:37;73.83;;;24.73;;
7160;SDS011;3622;53.576;9.978;2023-02-15T00:36:05;94.67;;;25.00;;
7160;SDS011;3622;53.576;9.978;2023-02-15T00:38:31;93.27;;;26.63;;
7160;SDS011;3622;53.576;9.978;2023-02-15T00:40:58;90.70;;;27.33;;
7160;SDS011;3622;53.576;9.978;2023-02-15T00:43:24;80.73;;;26.50;;
7160;SDS011;3622;53.576;9.978;2023-02-15T00:45:51;79.17;;;25.27;;
7160;SDS011;3622;53.576;9.978;2023-02-15T00:48:17;78.50;;;26.63;;
7160;SDS011;3622;53.576;9.978;2023-02-15T00:50:50;73.60;;;26.23;;
7160;SDS011;3622;53.576;9.978;2023-02-15T00:53:17;68.77;;;25.90;;
7160;SDS011;3622;53.576;9.978;2023-02-15T00:55:43;88.67;;;25.27;;
7160;SDS011;3622;53.576;9.978;2023-02-15T00:58:09;65.43;;;25.97;;
7160;SDS011;3622;53.576;9.978;2023-02-15T01:00:35;96.30;;;27.03;;
7160;SDS011;3622;53.576;9.978;2023-02-15T01:03:02;110.63;;;27.17;;
7160;SDS011;3622;53.576;9.978;2023-02-15T01:05:28;71.93;;;25.27;;
7160;SDS011;3622;53.576;9.978;2023-02-15T01:07:57;125.43;;;25.90;;
7160;SDS011;3622;53.576;9.978;2023-02-15T01:10:24;88.30;;;27.00;;
7160;SDS011;3622;53.576;9.978;2023-02-15T01:12:51;76.30;;;25.27;;
7160;SDS011;3622;53.576;9.978;2023-02-15T01:15:17;69.20;;;25.30;;
7160;SDS011;3622;53.576;9.978;2023-02-15T01:17:43;97.43;;;25.80;;
7160;SDS011;3622;53.576;9.978;2023-02-15T01:20:14;72.20;;;27.10;;
7160;SDS011;3622;53.576;9.978;2023-02-15T01:22:40;74.40;;;25.93;;
7160;SDS011;3622;53.576;9.978;2023-02-15T01:25:06;73.87;;;26.40;;
7160;SDS011;3622;53.576;9.978;2023-02-15T01:27:32;77.33;;;26.00;;
7160;SDS011;3622;53.576;9.978;2023-02-15T01:29:58;72.37;;;25.33;;
7160;SDS011;3622;53.576;9.978;2023-02-15T01:32:24;89.03;;;26.23;;
7160;SDS011;3622;53.576;9.978;2023-02-15T01:34:51;74.30;;;26.40;;
7160;SDS011;3622;53.576;9.978;2023-02-15T01:37:17;68.97;;;25.73;;
7160;SDS011;3622;53.576;9.978;2023-02-15T01:39:43;75.13;;;25.80;;
7160;SDS011;3622;53.576;9.978;2023-02-15T01:42:12;66.60;;;26.37;;
7160;SDS011;3622;53.576;9.978;2023-02-15T01:44:49;68.00;;;24.50;;
7160;SDS011;3622;53.576;9.978;2023-02-15T01:47:38;72.77;;;26.67;;
7160;SDS011;3622;53.576;9.978;2023-02-15T01:52:34;62.10;;;24.60;;
7160;SDS011;3622;53.576;9.978;2023-02-15T01:55:01;63.50;;;24.03;;
7160;SDS011;3622;53.576;9.978;2023-02-15T01:57:27;68.70;;;24.80;;
7160;SDS011;3622;53.576;9.978;2023-02-15T01:59:54;63.67;;;24.03;;
7160;SDS011;3622;53.576;9.978;2023-02-15T02:02:22;64.03;;;24.13;;
7160;SDS011;3622;53.576;9.978;2023-02-15T02:04:52;68.03;;;23.73;;
7160;SDS011;3622;53.576;9.978;2023-02-15T02:07:22;78.97;;;23.40;;
7160;SDS011;3622;53.576;9.978;2023-02-15T02:09:49;67.37;;;25.87;;
7160;SDS011;3622;53.576;9.978;2023-02-15T02:12:16;62.67;;;23.97;;
7160;SDS011;3622;53.576;9.978;2023-02-15T02:14:43;61.50;;;22.90;;
7160;SDS011;3622;53.576;9.978;2023-02-15T02:17:16;92.93;;;23.40;;
7160;SDS011;3622;53.576;9.978;2023-02-15T02:43:25;64.00;;;23.30;;
7160;SDS011;3622;53.576;9.978;2023-02-15T02:48:24;62.63;;;24.20;;
7160;SDS011;3622;53.576;9.978;2023-02-15T02:50:50;62.93;;;24.20;;
7160;SDS011;3622;53.576;9.978;2023-02-15T02:53:16;88.20;;;23.83;;
7160;SDS011;3622;53.576;9.978;2023-02-15T02:58:14;72.90;;;26.17;;
7160;SDS011;3622;53.576;9.978;2023-02-15T03:00:48;76.07;;;25.80;;
7160;SDS011;3622;53.576;9.978;2023-02-15T03:03:18;80.97;;;26.57;;
7160;SDS011;3622;53.576;9.978;2023-02-15T03:05:46;81.17;;;25.17;;
7160;SDS011;3622;53.576;9.978;2023-02-15T03:08:14;103.63;;;24.80;;
7160;SDS011;3622;53.576;9.978;2023-02-15T03:10:46;79.30;;;25.40;;
7160;SDS011;3622;53.576;9.978;2023-02-15T03:13:13;79.83;;;23.93;;
7160;SDS011;3622;53.576;9.978;2023-02-15T03:15:40;67.93;;;25.17;;
7160;SDS011;3622;53.576;9.978;2023-02-15T03:18:28;76.30;;;25.43;;
7160;SDS011;3622;53.576;9.978;2023-02-15T03:20:56;81.73;;;26.30;;
7160;SDS011;3622;53.576;9.978;2023-02-15T03:23:24;64.73;;;24.90;;
7160;SDS011;3622;53.576;9.978;2023-02-15T03:25:52;74.30;;;25.73;;
7160;SDS011;3622;53.576;9.978;2023-02-15T03:28:21;72.90;;;26.30;;
7160;SDS011;3622;53.576;9.978;2023-02-15T03:30:51;57.53;;;22.80;;
7160;SDS011;3622;53.576;9.978;2023-02-15T03:33:18;58.07;;;22.10;;
7160;SDS011;3622;53.576;9.978;2023-02-15T03:35:46;54.73;;;21.90;;
7160;SDS011;3622;53.576;9.978;2023-02-15T03:38:16;56.47;;;21.80;;
7160;SDS011;3622;53.576;9.978;2023-02-15T03:40:44;58.17;;;22.23;;
7160;SDS011;3622;53.576;9.978;2023-02-15T03:46:02;64.17;;;23.23;;
7160;SDS011;3622;53.576;9.978;2023-02-15T03:48:40;63.97;;;22.20;;
7160;SDS011;3622;53.576;9.978;2023-02-15T03:51:08;53.00;;;21.37;;
7160;SDS011;3622;53.576;9.978;2023-02-15T03:53:53;59.10;;;22.50;;
7160;SDS011;3622;53.576;9.978;2023-02-15T03:56:20;61.87;;;22.90;;
7160;SDS011;3622;53.576;9.978;2023-02-15T03:58:46;52.93;;;21.70;;
7160;SDS011;3622;53.576;9.978;2023-02-15T04:01:43;50.87;;;19.97;;
7160;SDS011;3622;53.576;9.978;2023-02-15T04:04:33;52.80;;;21.23;;
7160;SDS011;3622;53.576;9.978;2023-02-15T04:07:00;44.60;;;20.10;;
7160;SDS011;3622;53.576;9.978;2023-02-15T04:09:26;59.23;;;20.53;;
7160;SDS011;3622;53.576;9.978;2023-02-15T04:12:11;68.00;;;20.70;;
7160;SDS011;3622;53.576;9.978;2023-02-15T04:14:37;55.90;;;20.37;;
7160;SDS011;3622;53.576;9.978;2023-02-15T04:17:21;47.00;;;19.17;;
7160;SDS011;3622;53.576;9.978;2023-02-15T04:19:47;51.90;;;19.50;;
7160;SDS011;3622;53.576;9.978;2023-02-15T04:22:32;66.13;;;20.23;;
7160;SDS011;3622;53.576;9.978;2023-02-15T04:25:17;52.00;;;20.90;;
7160;SDS011;3622;53.576;9.978;2023-02-15T04:27:44;51.03;;;20.63;;
7160;SDS011;3622;53.576;9.978;2023-02-15T04:30:10;45.63;;;20.70;;
7160;SDS011;3622;53.576;9.978;2023-02-15T04:32:39;54.60;;;20.77;;
7160;SDS011;3622;53.576;9.978;2023-02-15T04:35:05;51.30;;;21.47;;
7160;SDS011;3622;53.576;9.978;2023-02-15T04:37:32;87.97;;;21.10;;
7160;SDS011;3622;53.576;9.978;2023-02-15T04:39:58;54.20;;;20.97;;
7160;SDS011;3622;53.576;9.978;2023-02-15T04:42:24;51.40;;;20.03;;
7160;SDS011;3622;53.576;9.978;2023-02-15T04:44:50;63.67;;;21.30;;
7160;SDS011;3622;53.576;9.978;2023-02-15T04:47:16;85.40;;;21.40;;
7160;SDS011;3622;53.576;9.978;2023-02-15T04:49:42;61.93;;;21.73;;
7160;SDS011;3622;53.576;9.978;2023-02-15T04:52:08;71.50;;;22.30;;
7160;SDS011;3622;53.576;9.978;2023-02-15T04:54:34;52.37;;;20.83;;
7160;SDS011;3622;53.576;9.978;2023-02-15T04:57:00;105.63;;;22.07;;
7160;SDS011;3622;53.576;9.978;2023-02-15T04:59:26;73.13;;;21.10;;
7160;SDS011;3622;53.576;9.978;2023-02-15T05:01:52;56.50;;;20.47;;
7160;SDS011;3622;53.576;9.978;2023-02-15T05:04:18;54.10;;;22.03;;
7160;SDS011;3622;53.576;9.978;2023-02-15T05:06:44;67.93;;;21.27;;
7160;SDS011;3622;53.576;9.978;2023-02-15T05:09:10;54.07;;;21.60;;
7160;SDS011;3622;53.576;9.978;2023-02-15T05:11:38;52.10;;;21.93;;
7160;SDS011;3622;53.576;9.978;2023-02-15T05:14:04;54.90;;;21.90;;
7160;SDS011;3622;53.576;9.978;2023-02-15T05:16:30;73.27;;;23.73;;
7160;SDS011;3622;53.576;9.978;2023-02-15T05:18:56;49.40;;;20.43;;
7160;SDS011;3622;53.576;9.978;2023-02-15T05:21:22;55.33;;;21.30;;
7160;SDS011;3622;53.576;9.978;2023-02-15T05:23:48;50.40;;;21.87;;
7160;SDS011;3622;53.576;9.978;2023-02-15T05:26:18;56.37;;;22.30;;
7160;SDS011;3622;53.576;9.978;2023-02-15T05:29:03;51.13;;;20.70;;
7160;SDS011;3622;53.576;9.978;2023-02-15T05:31:30;59.60;;;22.43;;
7160;SDS011;3622;53.576;9.978;2023-02-15T05:33:56;61.47;;;21.10;;
7160;SDS011;3622;53.576;9.978;2023-02-15T05:36:22;62.80;;;20.73;;
7160;SDS011;3622;53.576;9.978;2023-02-15T05:38:48;75.67;;;21.93;;
7160;SDS011;3622;53.576;9.978;2023-02-15T05:41:14;68.37;;;22.50;;
7160;SDS011;3622;53.576;9.978;2023-02-15T05:43:40;58.20;;;22.00;;
7160;SDS011;3622;53.576;9.978;2023-02-15T05:46:06;59.07;;;21.40;;
7160;SDS011;3622;53.576;9.978;2023-02-15T05:48:32;103.53;;;22.33;;
7160;SDS011;3622;53.576;9.978;2023-02-15T05:53:25;79.97;;;21.97;;
7160;SDS011;3622;53.576;9.978;2023-02-15T05:55:51;66.70;;;22.90;;
7160;SDS011;3622;53.576;9.978;2023-02-15T05:58:18;56.13;;;20.00;;
7160;SDS011;3622;53.576;9.978;2023-02-15T06:00:44;68.17;;;22.57;;
7160;SDS011;3622;53.576;9.978;2023-02-15T06:03:10;60.63;;;24.00;;
7160;SDS011;3622;53.576;9.978;2023-02-15T06:05:36;58.63;;;20.27;;
7160;SDS011;3622;53.576;9.978;2023-02-15T06:08:02;93.77;;;25.33;;
7160;SDS011;3622;53.576;9.978;2023-02-15T06:10:28;64.73;;;24.30;;
7160;SDS011;3622;53.576;9.978;2023-02-15T06:12:54;57.80;;;20.93;;
7160;SDS011;3622;53.576;9.978;2023-02-15T06:15:20;64.10;;;22.40;;
7160;SDS011;3622;53.576;9.978;2023-02-15T06:17:46;59.70;;;23.30;;
7160;SDS011;3622;53.576;9.978;2023-02-15T06:20:12;72.97;;;23.37;;
7160;SDS011;3622;53.576;9.978;2023-02-15T06:22:38;54.30;;;20.83;;
7160;SDS011;3622;53.576;9.978;2023-02-15T06:25:04;59.87;;;22.63;;
7160;SDS011;3622;53.576;9.978;2023-02-15T06:27:30;53.53;;;21.07;;
7160;SDS011;3622;53.576;9.978;2023-02-15T06:29:56;55.03;;;21.97;;
7160;SDS011;3622;53.576;9.978;2023-02-15T06:32:22;54.50;;;20.93;;
7160;SDS011;3622;53.576;9.978;2023-02-15T06:34:48;58.43;;;21.00;;
7160;SDS011;3622;53.576;9.978;2023-02-15T06:37:14;61.97;;;21.57;;
7160;SDS011;3622;53.576;9.978;2023-02-15T06:39:40;69.50;;;23.23;;
7160;SDS011;3622;53.576;9.978;2023-02-15T06:42:07;57.37;;;21.80;;
7160;SDS011;3622;53.576;9.978;2023-02-15T06:44:33;60.50;;;24.37;;
7160;SDS011;3622;53.576;9.978;2023-02-15T06:46:59;79.33;;;22.00;;
7160;SDS011;3622;53.576;9.978;2023-02-15T06:49:25;58.63;;;21.67;;
7160;SDS011;3622;53.576;9.978;2023-02-15T06:51:51;86.53;;;22.87;;
7160;SDS011;3622;53.576;9.978;2023-02-15T06:54:17;66.70;;;23.17;;
7160;SDS011;3622;53.576;9.978;2023-02-15T06:56:43;104.83;;;21.47;;
7160;SDS011;3622;53.576;9.978;2023-02-15T06:59:09;58.40;;;22.17;;
7160;SDS011;3622;53.576;9.978;2023-02-15T07:01:35;60.47;;;22.17;;
7160;SDS011;3622;53.576;9.978;2023-02-15T07:04:02;64.53;;;22.60;;
7160;SDS011;3622;53.576;9.978;2023-02-15T07:06:30;64.27;;;22.73;;
7160;SDS011;3622;53.576;9.978;2023-02-15T07:08:57;55.90;;;21.97;;
7160;SDS011;3622;53.576;9.978;2023-02-15T07:11:24;47.63;;;19.93;;
7160;SDS011;3622;53.576;9.978;2023-02-15T07:14:09;92.37;;;20.63;;
7160;SDS011;3622;53.576;9.978;2023-02-15T07:16:35;47.40;;;19.80;;
7160;SDS011;3622;53.576;9.978;2023-02-15T07:19:01;81.70;;;22.03;;
7160;SDS011;3622;53.576;9.978;2023-02-15T07:21:27;55.10;;;21.67;;
7160;SDS011;3622;53.576;9.978;2023-02-15T07:23:55;58.63;;;22.23;;
7160;SDS011;3622;53.576;9.978;2023-02-15T07:26:21;66.80;;;22.13;;
7160;SDS011;3622;53.576;9.978;2023-02-15T07:28:47;61.87;;;21.17;;
7160;SDS011;3622;53.576;9.978;2023-02-15T07:31:13;64.13;;;21.80;;
7160;SDS011;3622;53.576;9.978;2023-02-15T07:33:40;55.13;;;22.07;;
7160;SDS011;3622;53.576;9.978;2023-02-15T07:36:06;93.87;;;37.83;;
7160;SDS011;3622;53.576;9.978;2023-02-15T07:38:33;94.50;;;36.27;;
7160;SDS011;3622;53.576;9.978;2023-02-15T07:41:00;68.30;;;26.60;;
7160;SDS011;3622;53.576;9.978;2023-02-15T07:43:27;72.77;;;29.63;;
7160;SDS011;3622;53.576;9.978;2023-02-15T07:45:53;61.03;;;24.97;;
7160;SDS011;3622;53.576;9.978;2023-02-15T07:48:19;66.47;;;22.77;;
7160;SDS011;3622;53.576;9.978;2023-02-15T07:50:45;65.23;;;23.23;;
7160;SDS011;3622;53.576;9.978;2023-02-15T07:53:11;62.53;;;22.40;;
7160;SDS011;3622;53.576;9.978;2023-02-15T07:55:37;50.80;;;21.47;;
7160;SDS011;3622;53.576;9.978;2023-02-15T07:58:03;66.63;;;20.80;;
7160;SDS011;3622;53.576;9.978;2023-02-15T08:00:29;56.77;;;21.97;;
7160;SDS011;3622;53.576;9.978;2023-02-15T08:03:15;61.00;;;22.90;;
7160;SDS011;3622;53.576;9.978;2023-02-15T08:05:42;58.67;;;23.60;;
7160;SDS011;3622;53.576;9.978;2023-02-15T08:08:09;81.80;;;23.57;;
7160;SDS011;3622;53.576;9.978;2023-02-15T08:10:57;54.43;;;22.43;;
7160;SDS011;3622;53.576;9.978;2023-02-15T08:13:42;64.60;;;22.33;;
7160;SDS011;3622;53.576;9.978;2023-02-15T08:16:24;64.50;;;23.13;;
7160;SDS011;3622;53.576;9.978;2023-02-15T08:18:51;53.07;;;22.10;;
7160;SDS011;3622;53.576;9.978;2023-02-15T08:21:17;62.47;;;21.40;;
7160;SDS011;3622;53.576;9.978;2023-02-15T08:23:43;59.90;;;22.83;;
7160;SDS011;3622;53.576;9.978;2023-02-15T08:26:10;58.60;;;22.17;;
7160;SDS011;3622;53.576;9.978;2023-02-15T08:28:36;65.37;;;21.43;;
7160;SDS011;3622;53.576;9.978;2023-02-15T08:31:08;59.90;;;22.40;;
7160;SDS011;3622;53.576;9.978;2023-02-15T08:33:35;62.90;;;22.50;;
7160;SDS011;3622;53.576;9.978;2023-02-15T08:36:02;53.43;;;21.10;;
7160;SDS011;3622;53.576;9.978;2023-02-15T08:38:28;69.47;;;23.53;;
7160;SDS011;3622;53.576;9.978;2023-02-15T08:40:54;56.00;;;22.60;;
7160;SDS011;3622;53.576;9.978;2023-02-15T08:43:20;57.43;;;20.83;;
7160;SDS011;3622;53.576;9.978;2023-02-15T08:45:47;57.43;;;21.97;;
7160;SDS011;3622;53.576;9.978;2023-02-15T08:48:13;53.47;;;23.17;;
7160;SDS011;3622;53.576;9.978;2023-02-15T08:50:39;55.60;;;22.17;;
7160;SDS011;3622;53.576;9.978;2023-02-15T08:53:05;47.77;;;20.50;;
7160;SDS011;3622;53.576;9.978;2023-02-15T08:55:31;61.30;;;21.90;;
7160;SDS011;3622;53.576;9.978;2023-02-15T08:57:57;57.73;;;22.07;;
7160;SDS011;3622;53.576;9.978;2023-02-15T09:00:23;62.03;;;23.17;;
7160;SDS011;3622;53.576;9.978;2023-02-15T09:02:50;55.33;;;21.63;;
7160;SDS011;3622;53.576;9.978;2023-02-15T09:05:17;52.43;;;20.37;;
7160;SDS011;3622;53.576;9.978;2023-02-15T09:07:43;58.47;;;21.27;;
7160;SDS011;3622;53.576;9.978;2023-02-15T09:10:09;52.57;;;21.10;;
7160;SDS011;3622;53.576;9.978;2023-02-15T09:12:35;68.87;;;22.57;;
7160;SDS011;3622;53.576;9.978;2023-02-15T09:15:01;49.70;;;22.07;;
7160;SDS011;3622;53.576;9.978;2023-02-15T09:17:27;51.30;;;21.27;;
7160;SDS011;3622;53.576;9.978;2023-02-15T09:19:53;55.50;;;22.50;;
7160;SDS011;3622;53.576;9.978;2023-02-15T09:22:19;51.63;;;21.20;;
7160;SDS011;3622;53.576;9.978;2023-02-15T09:24:45;51.63;;;21.20;;
7160;SDS011;3622;53.576;9.978;2023-02-15T09:27:11;55.10;;;21.40;;
7160;SDS011;3622;53.576;9.978;2023-02-15T09:29:37;57.03;;;22.17;;
7160;SDS011;3622;53.576;9.978;2023-02-15T09:32:03;45.43;;;20.40;;
7160;SDS011;3622;53.576;9.978;2023-02-15T09:34:29;49.87;;;20.50;;
7160;SDS011;3622;53.576;9.978;2023-02-15T09:36:55;49.07;;;20.10;;
7160;SDS011;3622;53.576;9.978;2023-02-15T09:39:22;43.20;;;20.30;;
7160;SDS011;3622;53.576;9.978;2023-02-15T09:49:58;53.70;;;20.70;;
7160;SDS011;3622;53.576;9.978;2023-02-15T10:02:41;47.20;;;20.53;;
7160;SDS011;3622;53.576;9.978;2023-02-15T10:05:44;46.73;;;21.33;;
7160;SDS011;3622;53.576;9.978;2023-02-15T10:08:51;49.67;;;21.13;;
7160;SDS011;3622;53.576;9.978;2023-02-15T10:16:10;53.53;;;23.23;;
7160;SDS011;3622;53.576;9.978;2023-02-15T10:18:48;50.93;;;23.43;;
7160;SDS011;3622;53.576;9.978;2023-02-15T10:23:55;50.00;;;21.13;;
7160;SDS011;3622;53.576;9.978;2023-02-15T10:26:38;51.43;;;21.93;;
7160;SDS011;3622;53.576;9.978;2023-02-15T10:46:47;44.17;;;20.53;;
7160;SDS011;3622;53.576;9.978;2023-02-15T10:54:23;39.03;;;19.90;;
7160;SDS011;3622;53.576;9.978;2023-02-15T11:06:49;38.93;;;20.47;;
7160;SDS011;3622;53.576;9.978;2023-02-15T11:09:16;43.37;;;21.30;;
7160;SDS011;3622;53.576;9.978;2023-02-15T11:11:47;45.43;;;22.70;;
7160;SDS011;3622;53.576;9.978;2023-02-15T11:16:59;47.73;;;20.60;;
7160;SDS011;3622;53.576;9.978;2023-02-15T11:19:34;46.80;;;22.20;;
7160;SDS011;3622;53.576;9.978;2023-02-15T11:22:02;50.37;;;22.20;;
7160;SDS011;3622;53.576;9.978;2023-02-15T11:24:30;49.10;;;22.30;;
7160;SDS011;3622;53.576;9.978;2023-02-15T11:27:03;53.70;;;24.03;;
7160;SDS011;3622;53.576;9.978;2023-02-15T11:29:34;43.80;;;21.33;;
7160;SDS011;3622;53.576;9.978;2023-02-15T11:32:47;46.50;;;22.90;;
7160;SDS011;3622;53.576;9.978;2023-02-15T11:35:02;46.50;;;23.73;;
7160;SDS011;3622;53.576;9.978;2023-02-15T11:40:02;48.90;;;24.43;;
7160;SDS011;3622;53.576;9.978;2023-02-15T11:42:29;50.37;;;24.57;;
7160;SDS011;3622;53.576;9.978;2023-02-15T11:47:42;47.40;;;22.50;;
7160;SDS011;3622;53.576;9.978;2023-02-15T11:50:13;48.77;;;23.30;;
7160;SDS011;3622;53.576;9.978;2023-02-15T11:52:41;48.77;;;23.60;;
7160;SDS011;3622;53.576;9.978;2023-02-15T11:55:11;49.43;;;23.57;;
7160;SDS011;3622;53.576;9.978;2023-02-15T11:57:39;48.07;;;22.17;;
7160;SDS011;3622;53.576;9.978;2023-02-15T12:00:52;45.73;;;21.70;;
7160;SDS011;3622;53.576;9.978;2023-02-15T12:02:53;43.87;;;22.03;;
7160;SDS011;3622;53.576;9.978;2023-02-15T12:05:21;43.43;;;21.73;;
7160;SDS011;3622;53.576;9.978;2023-02-15T12:07:50;46.23;;;21.27;;
7160;SDS011;3622;53.576;9.978;2023-02-15T12:10:28;42.80;;;22.10;;
7160;SDS011;3622;53.576;9.978;2023-02-15T12:15:34;44.93;;;23.40;;
7160;SDS011;3622;53.576;9.978;2023-02-15T12:18:00;48.50;;;23.80;;
7160;SDS011;3622;53.576;9.978;2023-02-15T12:20:30;49.70;;;23.43;;
7160;SDS011;3622;53.576;9.978;2023-02-15T12:23:00;50.63;;;24.87;;
7160;SDS011;3622;53.576;9.978;2023-02-15T12:28:42;44.23;;;22.10;;
7160;SDS011;3622;53.576;9.978;2023-02-15T12:31:39;47.03;;;23.63;;
7160;SDS011;3622;53.576;9.978;2023-02-15T12:34:32;56.87;;;24.37;;
7160;SDS011;3622;53.576;9.978;2023-02-15T12:37:25;49.67;;;24.00;;
7160;SDS011;3622;53.576;9.978;2023-02-15T12:40:19;52.90;;;24.00;;
7160;SDS011;3622;53.576;9.978;2023-02-15T12:43:27;46.43;;;21.30;;
7160;SDS011;3622;53.576;9.978;2023-02-15T12:49:19;46.27;;;22.80;;
7160;SDS011;3622;53.576;9.978;2023-02-15T12:55:18;45.00;;;23.97;;
7160;SDS011;3622;53.576;9.978;2023-02-15T13:01:14;49.83;;;24.00;;
7160;SDS011;3622;53.576;9.978;2023-02-15T13:04:08;49.67;;;22.60;;
7160;SDS011;3622;53.576;9.978;2023-02-15T13:07:05;50.47;;;24.03;;
7160;SDS011;3622;53.576;9.978;2023-02-15T13:10:00;48.47;;;24.03;;
7160;SDS011;3622;53.576;9.978;2023-02-15T13:12:51;44.03;;;22.70;;
7160;SDS011;3622;53.576;9.978;2023-02-15T13:15:43;40.73;;;22.97;;
7160;SDS011;3622;53.576;9.978;2023-02-15T13:18:38;45.80;;;22.83;;
7160;SDS011;3622;53.576;9.978;2023-02-15T13:21:31;98.70;;;46.83;;
7160;SDS011;3622;53.576;9.978;2023-02-15T13:24:25;90.13;;;40.63;;
7160;SDS011;3622;53.576;9.978;2023-02-15T13:27:20;59.20;;;31.20;;
7160;SDS011;3622;53.576;9.978;2023-02-15T13:30:33;63.50;;;31.87;;
7160;SDS011;3622;53.576;9.978;2023-02-15T13:33:24;61.30;;;28.63;;
7160;SDS011;3622;53.576;9.978;2023-02-15T13:42:29;56.50;;;27.40;;
7160;SDS011;3622;53.576;9.978;2023-02-15T13:51:35;53.73;;;25.07;;
7160;SDS011;3622;53.576;9.978;2023-02-15T13:57:42;56.57;;;24.50;;
7160;SDS011;3622;53.576;9.978;2023-02-15T14:09:36;47.50;;;24.30;;
7160;SDS011;3622;53.576;9.978;2023-02-15T14:18:42;42.97;;;20.73;;
7160;SDS011;3622;53.576;9.978;2023-02-15T14:21:36;37.33;;;20.57;;
7160;SDS011;3622;53.576;9.978;2023-02-15T14:24:38;40.70;;;21.43;;
7160;SDS011;3622;53.576;9.978;2023-02-15T14:30:43;40.43;;;20.57;;
7160;SDS011;3622;53.576;9.978;2023-02-15T14:33:37;41.80;;;21.70;;
7160;SDS011;3622;53.576;9.978;2023-02-15T14:36:28;37.17;;;20.70;;
7160;SDS011;3622;53.576;9.978;2023-02-15T14:42:35;31.33;;;18.93;;
7160;SDS011;3622;53.576;9.978;2023-02-15T14:45:35;39.03;;;19.40;;
7160;SDS011;3622;53.576;9.978;2023-02-15T14:48:35;41.17;;;20.40;;
7160;SDS011;3622;53.576;9.978;2023-02-15T14:52:11;36.13;;;20.50;;
7160;SDS011;3622;53.576;9.978;2023-02-15T14:57:37;40.83;;;20.63;;
7160;SDS011;3622;53.576;9.978;2023-02-15T15:00:36;40.60;;;21.60;;
7160;SDS011;3622;53.576;9.978;2023-02-15T15:03:28;42.07;;;22.83;;
7160;SDS011;3622;53.576;9.978;2023-02-15T15:06:26;48.47;;;22.13;;
7160;SDS011;3622;53.576;9.978;2023-02-15T15:09:25;43.00;;;21.63;;
7160;SDS011;3622;53.576;9.978;2023-02-15T15:15:31;38.43;;;21.33;;
7160;SDS011;3622;53.576;9.978;2023-02-15T15:27:37;45.73;;;22.43;;
7160;SDS011;3622;53.576;9.978;2023-02-15T15:33:25;43.07;;;20.87;;
7160;SDS011;3622;53.576;9.978;2023-02-15T15:39:27;37.03;;;21.07;;
7160;SDS011;3622;53.576;9.978;2023-02-15T15:42:37;43.20;;;21.30;;
7160;SDS011;3622;53.576;9.978;2023-02-15T15:45:50;35.90;;;19.90;;
7160;SDS011;3622;53.576;9.978;2023-02-15T15:48:44;42.03;;;21.00;;
7160;SDS011;3622;53.576;9.978;2023-02-15T15:51:35;38.43;;;20.80;;
7160;SDS011;3622;53.576;9.978;2023-02-15T15:54:30;51.57;;;21.80;;
7160;SDS011;3622;53.576;9.978;2023-02-15T15:57:25;40.73;;;21.13;;
7160;SDS011;3622;53.576;9.978;2023-02-15T16:00:26;36.97;;;20.73;;
7160;SDS011;3622;53.576;9.978;2023-02-15T16:03:23;38.17;;;20.67;;
7160;SDS011;3622;53.576;9.978;2023-02-15T16:06:25;38.47;;;19.53;;
7160;SDS011;3622;53.576;9.978;2023-02-15T16:09:18;35.23;;;18.90;;
7160;SDS011;3622;53.576;9.978;2023-02-15T16:12:13;37.70;;;20.10;;
7160;SDS011;3622;53.576;9.978;2023-02-15T16:15:13;47.47;;;21.97;;
7160;SDS011;3622;53.576;9.978;2023-02-15T16:18:05;36.40;;;20.57;;
7160;SDS011;3622;53.576;9.978;2023-02-15T16:20:59;40.17;;;20.53;;
7160;SDS011;3622;53.576;9.978;2023-02-15T16:30:32;48.10;;;21.70;;
7160;SDS011;3622;53.576;9.978;2023-02-15T16:33:24;42.83;;;21.77;;
7160;SDS011;3622;53.576;9.978;2023-02-15T16:36:26;42.30;;;22.20;;
7160;SDS011;3622;53.576;9.978;2023-02-15T16:39:18;41.67;;;21.70;;
7160;SDS011;3622;53.576;9.978;2023-02-15T16:42:10;39.03;;;21.53;;
7160;SDS011;3622;53.576;9.978;2023-02-15T16:45:07;41.50;;;20.60;;
7160;SDS011;3622;53.576;9.978;2023-02-15T16:47:59;42.47;;;21.07;;
7160;SDS011;3622;53.576;9.978;2023-02-15T16:50:53;37.87;;;20.90;;
7160;SDS011;3622;53.576;9.978;2023-02-15T16:53:46;39.00;;;20.30;;
7160;SDS011;3622;53.576;9.978;2023-02-15T16:56:38;38.37;;;20.43;;
7160;SDS011;3622;53.576;9.978;2023-02-15T16:59:36;38.20;;;19.37;;
7160;SDS011;3622;53.576;9.978;2023-02-15T17:02:31;41.53;;;21.33;;
7160;SDS011;3622;53.576;9.978;2023-02-15T17:05:23;39.90;;;19.83;;
7160;SDS011;3622;53.576;9.978;2023-02-15T17:17:12;38.03;;;20.20;;
7160;SDS011;3622;53.576;9.978;2023-02-15T17:20:11;39.67;;;21.03;;
7160;SDS011;3622;53.576;9.978;2023-02-15T17:23:04;41.73;;;22.20;;
7160;SDS011;3622;53.576;9.978;2023-02-15T17:25:56;50.63;;;19.50;;
7160;SDS011;3622;53.576;9.978;2023-02-15T17:28:52;47.30;;;21.13;;
7160;SDS011;3622;53.576;9.978;2023-02-15T17:31:49;38.57;;;20.47;;
7160;SDS011;3622;53.576;9.978;2023-02-15T17:40:30;45.80;;;22.17;;
7160;SDS011;3622;53.576;9.978;2023-02-15T17:43:22;47.00;;;22.20;;
7160;SDS011;3622;53.576;9.978;2023-02-15T17:46:12;43.37;;;21.73;;
7160;SDS011;3622;53.576;9.978;2023-02-15T17:49:04;49.33;;;22.67;;
7160;SDS011;3622;53.576;9.978;2023-02-15T17:51:55;45.63;;;22.50;;
7160;SDS011;3622;53.576;9.978;2023-02-15T17:54:47;51.17;;;25.37;;
7160;SDS011;3622;53.576;9.978;2023-02-15T17:57:38;44.23;;;22.30;;
7160;SDS011;3622;53.576;9.978;2023-02-15T18:00:29;47.90;;;24.10;;
7160;SDS011;3622;53.576;9.978;2023-02-15T18:03:21;52.83;;;24.87;;
7160;SDS011;3622;53.576;9.978;2023-02-15T18:06:12;49.13;;;24.63;;
7160;SDS011;3622;53.576;9.978;2023-02-15T18:09:03;44.97;;;23.10;;
7160;SDS011;3622;53.576;9.978;2023-02-15T18:11:55;51.07;;;25.17;;
7160;SDS011;3622;53.576;9.978;2023-02-15T18:14:46;46.73;;;22.80;;
7160;SDS011;3622;53.576;9.978;2023-02-15T18:17:38;49.63;;;23.90;;
7160;SDS011;3622;53.576;9.978;2023-02-15T18:20:33;48.07;;;23.50;;
7160;SDS011;3622;53.576;9.978;2023-02-15T18:23:25;46.57;;;24.13;;
7160;SDS011;3622;53.576;9.978;2023-02-15T18:26:17;52.20;;;24.23;;
7160;SDS011;3622;53.576;9.978;2023-02-15T18:29:09;50.53;;;25.00;;
7160;SDS011;3622;53.576;9.978;2023-02-15T18:32:00;50.97;;;23.87;;
7160;SDS011;3622;53.576;9.978;2023-02-15T18:34:51;47.57;;;22.97;;
7160;SDS011;3622;53.576;9.978;2023-02-15T18:37:45;47.17;;;22.73;;
7160;SDS011;3622;53.576;9.978;2023-02-15T18:40:36;49.13;;;24.03;;
7160;SDS011;3622;53.576;9.978;2023-02-15T18:43:27;46.97;;;23.77;;
